Time;durP1;ratioP1;P1;durP2;ratioP2;P2;SDS_P1;SDS_P2;PMS_P1;PMS_P2;Temp;Humidity;BMP_temperature;BMP_pressure;BME280_temperature;BME280_humidity;BME280_pressure;Samples;Min_cycle;Max_cycle;Signal;HPM_P1;HPM_P2
2021/06/27 00:04:21;;;;;;;10.83;9.33;;;;;;;14.34;71.80;99995.34;254426;1104;114841;-73
2021/06/27 00:09:27;;;;;;;10.68;9.68;;;;;;;14.24;71.71;99992.55;254234;1103;115696;-71
2021/06/27 00:14:33;;;;;;;9.23;8.13;;;;;;;14.09;72.05;99989.69;254095;1104;116103;-69
2021/06/27 00:19:37;;;;;;;9.25;8.35;;;;;;;13.96;72.14;99988.22;254383;1099;115081;-71
2021/06/27 00:24:40;;;;;;;9.85;8.93;;;;;;;13.98;72.45;99982.61;254454;1104;115749;-71
2021/06/27 00:29:44;;;;;;;9.93;8.93;;;;;;;14.05;72.66;99986.72;255167;1103;115772;-70
2021/06/27 00:34:48;;;;;;;12.07;10.80;;;;;;;14.09;72.39;99995.05;255580;1100;115784;-70
2021/06/27 00:39:51;;;;;;;10.23;9.00;;;;;;;13.95;72.26;99996.51;254232;1103;117695;-70
2021/06/27 00:44:54;;;;;;;14.90;9.68;;;;;;;13.81;72.39;99996.88;254500;1104;116893;-70
2021/06/27 00:49:58;;;;;;;12.85;9.60;;;;;;;13.76;72.23;99990.64;254390;1104;117285;-71
2021/06/27 00:55:03;;;;;;;15.48;9.93;;;;;;;13.66;72.67;99994.02;254433;1104;116543;-69
2021/06/27 01:00:10;;;;;;;9.87;8.87;;;;;;;13.54;72.76;100000.53;255769;1104;115180;-70
2021/06/27 01:05:23;;;;;;;8.40;7.60;;;;;;;13.45;72.72;99997.50;257242;1104;115734;-70
2021/06/27 01:10:27;;;;;;;10.80;9.80;;;;;;;13.44;73.51;99995.88;257323;1104;117782;-71
2021/06/27 01:15:31;;;;;;;17.13;10.98;;;;;;;13.48;73.13;100003.14;255931;1104;116315;-71
2021/06/27 01:20:37;;;;;;;11.40;10.23;;;;;;;13.53;73.11;100005.08;256175;1104;115659;-71
2021/06/27 01:25:43;;;;;;;10.70;9.75;;;;;;;13.55;73.31;100000.29;255041;1104;116144;-69
2021/06/27 01:30:49;;;;;;;12.55;10.03;;;;;;;13.59;73.96;100014.81;254354;1104;116830;-71
2021/06/27 01:35:52;;;;;;;10.80;9.70;;;;;;;13.67;73.99;100011.72;254361;1104;117679;-70
2021/06/27 01:40:55;;;;;;;10.43;9.38;;;;;;;13.63;73.81;100010.59;254351;1104;116803;-71
2021/06/27 01:46:01;;;;;;;11.38;9.98;;;;;;;13.50;73.81;100008.25;254386;1104;116273;-70
2021/06/27 01:51:06;;;;;;;10.85;9.85;;;;;;;13.37;73.66;100000.59;254298;1104;116384;-70
2021/06/27 01:56:10;;;;;;;17.77;11.43;;;;;;;13.33;74.02;100007.48;254566;1104;116354;-68
2021/06/27 02:01:17;;;;;;;24.60;10.33;;;;;;;13.35;74.26;100002.70;254593;1104;117284;-69
2021/06/27 02:06:23;;;;;;;13.73;12.15;;;;;;;13.41;74.21;99993.69;254614;1104;116840;-70
2021/06/27 02:11:28;;;;;;;11.80;9.48;;;;;;;13.31;74.24;99993.53;254424;1104;116318;-69
2021/06/27 02:16:32;;;;;;;11.73;10.63;;;;;;;13.20;73.63;100000.59;254178;1104;117814;-69
2021/06/27 02:21:37;;;;;;;13.88;9.13;;;;;;;13.14;73.87;100004.25;254320;1104;117656;-70
2021/06/27 02:26:42;;;;;;;15.40;12.27;;;;;;;13.18;74.47;100005.38;254959;1104;116495;-68
2021/06/27 02:31:50;;;;;;;11.75;10.35;;;;;;;13.26;74.81;100001.48;254226;1104;116719;-68
2021/06/27 02:36:54;;;;;;;17.78;9.65;;;;;;;13.29;74.49;99998.32;254271;1104;116412;-70
2021/06/27 02:41:58;;;;;;;14.60;10.85;;;;;;;13.27;74.57;100001.24;254471;1104;116950;-71
2021/06/27 02:47:03;;;;;;;9.93;8.63;;;;;;;13.27;74.77;100001.24;254737;1098;115620;-70
2021/06/27 02:52:07;;;;;;;16.05;9.93;;;;;;;13.15;74.52;99995.97;255103;1104;115178;-70
2021/06/27 02:57:09;;;;;;;11.83;10.18;;;;;;;13.18;74.85;100007.25;255143;1104;115126;-70
2021/06/27 03:02:12;;;;;;;11.63;8.63;;;;;;;13.21;74.74;100001.41;255112;1103;115971;-69
2021/06/27 03:07:16;;;;;;;14.00;12.05;;;;;;;13.18;75.29;100000.03;254477;1104;115462;-70
2021/06/27 03:12:20;;;;;;;13.90;11.78;;;;;;;13.28;75.09;99997.52;255518;1098;115807;-69
2021/06/27 03:17:23;;;;;;;19.43;10.63;;;;;;;13.41;74.78;100007.08;254563;1099;115426;-69
2021/06/27 03:22:26;;;;;;;15.10;11.85;;;;;;;13.48;75.05;100007.69;254365;1104;115568;-68
2021/06/27 03:27:30;;;;;;;16.50;13.63;;;;;;;13.53;75.34;99997.05;254570;1104;115295;-69
2021/06/27 03:32:36;;;;;;;14.13;12.80;;;;;;;13.66;74.62;100002.05;254905;1103;116181;-72
2021/06/27 03:37:51;;;;;;;16.10;11.48;;;;;;;13.75;74.68;99995.22;254354;1103;116172;-73
2021/06/27 03:42:54;;;;;;;17.28;13.70;;;;;;;13.80;75.03;99984.53;254671;1104;115535;-73
2021/06/27 03:47:57;;;;;;;17.50;13.13;;;;;;;14.05;75.46;99989.41;254232;1104;116862;-73
2021/06/27 03:53:01;;;;;;;16.83;13.23;;;;;;;14.29;75.45;99979.20;254472;1104;116949;-73
2021/06/27 03:58:03;;;;;;;13.98;12.58;;;;;;;14.60;75.41;99982.20;254786;1104;114695;-73
2021/06/27 04:03:05;;;;;;;15.25;13.80;;;;;;;14.79;74.68;99972.69;254600;1104;115471;-73
2021/06/27 04:08:08;;;;;;;13.10;11.83;;;;;;;14.95;75.27;99981.68;254386;1104;115377;-72
2021/06/27 04:13:10;;;;;;;14.73;12.18;;;;;;;15.14;74.83;99983.69;254495;1104;115689;-72
2021/06/27 04:18:13;;;;;;;14.55;12.93;;;;;;;15.39;74.91;99974.97;254338;1104;211003;-72
2021/06/27 04:23:17;;;;;;;19.23;15.83;;;;;;;15.71;75.22;99969.52;254498;1104;115530;-72
2021/06/27 04:28:20;;;;;;;20.53;16.93;;;;;;;16.06;75.42;99965.33;254581;1104;115906;-73
2021/06/27 04:33:24;;;;;;;23.20;18.63;;;;;;;16.47;75.67;99964.34;254888;1103;115443;-73
2021/06/27 04:38:30;;;;;;;17.90;16.15;;;;;;;19.45;71.70;99959.65;255512;1104;115583;-73
2021/06/27 04:43:34;;;;;;;17.03;15.23;;;;;;;23.08;67.78;99974.14;254435;1104;115556;-73
2021/06/27 04:48:38;;;;;;;18.60;16.65;;;;;;;23.92;66.77;99970.47;254437;1100;115324;-73
2021/06/27 04:53:41;;;;;;;19.95;17.95;;;;;;;25.12;64.25;99975.11;256553;1104;115124;-73
2021/06/27 04:58:45;;;;;;;20.03;18.10;;;;;;;24.20;62.89;99992.77;255272;1104;115445;-72
2021/06/27 05:03:48;;;;;;;16.40;14.85;;;;;;;23.39;61.68;99990.45;255488;1104;116107;-71
2021/06/27 05:08:51;;;;;;;17.93;16.05;;;;;;;25.32;59.33;99991.91;257278;1104;116342;-70
2021/06/27 05:13:54;;;;;;;17.03;15.33;;;;;;;27.31;56.80;99988.52;257496;1104;116717;-70
2021/06/27 05:18:58;;;;;;;14.60;12.97;;;;;;;30.14;53.68;99992.20;255749;1104;117172;-70
2021/06/27 05:24:01;;;;;;;12.55;10.78;;;;;;;32.73;49.92;99998.54;255234;1099;116454;-71
2021/06/27 05:29:05;;;;;;;11.53;9.85;;;;;;;34.63;46.59;100000.44;254265;1104;117416;-72
2021/06/27 05:34:08;;;;;;;7.85;7.13;;;;;;;35.99;43.44;100006.93;254380;1104;116382;-72
2021/06/27 05:39:12;;;;;;;6.35;5.80;;;;;;;37.22;40.40;100004.03;254195;1104;116955;-71
2021/06/27 05:44:15;;;;;;;9.13;5.08;;;;;;;38.35;38.29;100008.52;255237;1104;115987;-71
2021/06/27 05:49:19;;;;;;;9.10;6.40;;;;;;;39.34;36.21;100005.56;254537;1104;116611;-70
2021/06/27 05:54:23;;;;;;;5.73;5.23;;;;;;;40.04;33.90;100016.73;254180;1104;116420;-71
2021/06/27 05:59:26;;;;;;;13.98;5.65;;;;;;;40.41;32.26;100014.80;254449;1103;116753;-71
2021/06/27 06:04:29;;;;;;;7.70;4.95;;;;;;;40.88;31.65;100018.99;254502;1099;115946;-72
2021/06/27 06:09:32;;;;;;;6.08;4.68;;;;;;;41.51;30.51;100023.50;254459;1104;116939;-72
2021/06/27 06:14:36;;;;;;;5.33;3.88;;;;;;;41.91;28.65;100010.05;254220;1104;117579;-72
2021/06/27 06:19:40;;;;;;;4.70;4.37;;;;;;;41.97;27.48;100016.69;254358;1104;116227;-72
2021/06/27 06:24:44;;;;;;;6.23;4.13;;;;;;;42.26;27.40;100009.08;254360;1104;117117;-72
2021/06/27 06:29:47;;;;;;;4.58;4.15;;;;;;;42.77;26.76;100020.42;254236;1104;137489;-72
2021/06/27 06:34:50;;;;;;;3.93;3.65;;;;;;;42.64;25.87;100019.61;254444;1104;117048;-72
2021/06/27 06:39:54;;;;;;;4.07;2.90;;;;;;;42.82;25.82;100016.28;254441;1104;115689;-72
2021/06/27 06:44:58;;;;;;;3.13;2.88;;;;;;;42.86;24.79;100028.95;254373;1098;117064;-72
2021/06/27 06:50:01;;;;;;;2.45;2.13;;;;;;;42.83;24.17;100015.05;254461;1104;116110;-74
2021/06/27 06:55:04;;;;;;;2.33;1.93;;;;;;;42.65;23.12;100021.19;254329;1104;116053;-74
2021/06/27 07:00:10;;;;;;;1.63;1.53;;;;;;;42.59;23.33;100017.36;254465;1104;116307;-72
2021/06/27 07:05:13;;;;;;;1.90;1.80;;;;;;;42.40;22.46;100023.92;254327;1104;117768;-73
2021/06/27 07:10:20;;;;;;;1.53;1.43;;;;;;;41.84;22.13;100021.47;254669;1104;116095;-73
2021/06/27 07:15:24;;;;;;;1.97;1.77;;;;;;;41.78;22.42;100010.02;254259;1104;114949;-73
2021/06/27 07:20:27;;;;;;;2.08;1.68;;;;;;;41.82;22.39;100016.31;254277;1099;115663;-73
2021/06/27 07:25:30;;;;;;;1.73;1.43;;;;;;;40.90;22.29;100012.97;254989;1099;116071;-69
2021/06/27 07:30:32;;;;;;;1.53;1.30;;;;;;;39.60;23.23;100006.73;255725;1104;115693;-71
2021/06/27 07:35:36;;;;;;;1.63;1.53;;;;;;;38.84;23.76;100011.07;255305;1100;115364;-73
2021/06/27 07:40:40;;;;;;;1.28;1.18;;;;;;;37.93;24.14;100003.39;254440;1103;115887;-78
2021/06/27 07:45:44;;;;;;;2.10;1.23;;;;;;;37.04;24.86;100004.91;254315;1098;116338;-78
2021/06/27 07:50:47;;;;;;;1.37;1.33;;;;;;;36.22;25.24;100000.91;254485;1104;116313;-73
2021/06/27 07:55:51;;;;;;;1.30;1.30;;;;;;;35.58;25.43;99993.48;254444;1099;116892;-76
2021/06/27 08:00:55;;;;;;;4.73;1.58;;;;;;;34.76;26.13;99998.91;254186;1104;116220;-74
2021/06/27 08:05:59;;;;;;;1.30;1.30;;;;;;;34.13;27.42;99989.13;255219;1104;116326;-74
2021/06/27 08:11:02;;;;;;;2.93;1.70;;;;;;;33.52;27.15;99984.37;254269;1096;117410;-77
2021/06/27 08:16:06;;;;;;;2.65;2.00;;;;;;;32.75;27.51;99998.98;254246;1100;116323;-72
2021/06/27 08:21:09;;;;;;;;;;;;;;;32.52;28.77;100006.58;254415;1104;116046;-74
2021/06/27 08:26:12;;;;;;;2.03;1.93;;;;;;;32.53;29.45;100003.45;254939;1104;104226;-74
2021/06/27 08:31:15;;;;;;;1.90;1.70;;;;;;;32.07;28.96;100009.14;254411;1099;116139;-76
2021/06/27 08:36:19;;;;;;;2.38;2.00;;;;;;;31.60;29.07;100006.81;254352;1104;116879;-80
2021/06/27 08:41:22;;;;;;;2.07;1.93;;;;;;;31.27;30.33;100004.69;254285;1104;216117;-80
2021/06/27 08:46:25;;;;;;;3.35;3.00;;;;;;;31.34;30.82;100001.27;254327;1099;116336;-81
2021/06/27 08:51:36;;;;;;;2.55;2.33;;;;;;;30.91;30.57;100000.45;254396;1104;117760;-80
2021/06/27 08:56:40;;;;;;;2.25;2.05;;;;;;;30.14;30.66;99992.20;254203;1100;116336;-81
2021/06/27 09:01:42;;;;;;;3.50;3.20;;;;;;;29.89;31.27;99991.62;254214;1104;116618;-79
2021/06/27 09:06:45;;;;;;;2.68;2.53;;;;;;;29.70;32.41;100000.58;257269;1103;115992;-76
2021/06/27 09:12:08;;;;;;;5.08;2.60;;;;;;;29.68;32.86;99994.64;256911;1100;115653;-82
2021/06/27 09:17:18;;;;;;;2.50;2.40;;;;;;;30.14;33.20;99992.99;257445;1103;116155;-81
2021/06/27 09:22:24;;;;;;;2.47;2.27;;;;;;;29.97;32.31;99992.55;257207;1104;115474;-78
2021/06/27 09:27:28;;;;;;;6.53;3.53;;;;;;;29.76;32.85;99988.17;256999;1104;117035;-79
2021/06/27 09:32:35;;;;;;;3.10;2.70;;;;;;;29.96;33.90;99979.99;257424;1104;116997;-79
2021/06/27 09:37:40;;;;;;;2.77;2.57;;;;;;;30.27;33.19;99988.14;254759;1104;117039;-76
2021/06/27 09:42:43;;;;;;;3.45;2.90;;;;;;;29.70;32.91;99978.60;254215;1104;115719;-73
2021/06/27 09:48:04;;;;;;;3.08;2.85;;;;;;;28.99;32.79;99981.52;254590;1104;116133;-74
2021/06/27 09:53:31;;;;;;;3.75;2.90;;;;;;;28.79;34.03;99978.59;254503;1104;116037;-74
2021/06/27 09:58:35;;;;;;;3.18;2.98;;;;;;;29.20;34.25;99965.59;255230;1104;116591;-74
2021/06/27 10:03:44;;;;;;;3.40;3.10;;;;;;;29.12;34.29;99972.04;254356;1104;116002;-74
2021/06/27 10:08:49;;;;;;;3.03;2.78;;;;;;;28.58;33.66;99975.28;255081;1104;116146;-75
2021/06/27 10:13:54;;;;;;;3.45;2.50;;;;;;;28.43;34.63;99970.55;254483;1104;115978;-74
2021/06/27 10:18:59;;;;;;;4.10;2.43;;;;;;;28.72;34.34;99972.14;254369;1104;115177;-73
2021/06/27 10:24:03;;;;;;;3.30;3.07;;;;;;;28.95;34.43;99964.95;254322;1100;115122;-74
2021/06/27 10:29:09;;;;;;;2.78;2.33;;;;;;;29.20;34.44;99960.09;254625;1104;115838;-74
2021/06/27 10:34:13;;;;;;;2.83;2.73;;;;;;;28.81;33.66;99962.61;254444;1104;115262;-74
2021/06/27 10:39:17;;;;;;;2.60;2.48;;;;;;;28.93;33.75;99960.96;254401;1104;115786;-73
2021/06/27 10:44:25;;;;;;;2.68;2.48;;;;;;;28.40;33.73;99954.80;254130;1104;115271;-72
2021/06/27 10:49:31;;;;;;;2.85;2.75;;;;;;;27.98;34.07;99965.27;255463;1104;116396;-74
2021/06/27 10:54:34;;;;;;;5.10;2.78;;;;;;;27.69;35.02;99947.95;254108;1103;115395;-74
2021/06/27 10:59:51;;;;;;;4.70;3.08;;;;;;;27.63;35.48;99952.06;254369;1098;117351;-74
2021/06/27 11:04:56;;;;;;;2.48;2.38;;;;;;;28.09;35.24;99944.47;254961;1104;115338;-74
2021/06/27 11:10:18;;;;;;;2.23;2.13;;;;;;;28.37;34.92;99950.80;254380;1104;117728;-74
2021/06/27 11:15:26;;;;;;;2.90;2.70;;;;;;;28.28;34.48;99939.17;255532;1104;117171;-72
2021/06/27 11:20:49;;;;;;;3.10;2.90;;;;;;;28.07;34.41;99936.59;255580;1103;116326;-73
2021/06/27 11:25:52;;;;;;;3.90;2.57;;;;;;;28.43;34.31;99929.42;254493;1104;115470;-74
2021/06/27 11:31:23;;;;;;;20.28;3.60;;;;;;;28.69;34.53;99932.49;254321;1103;115379;-73
2021/06/27 11:36:27;;;;;;;2.68;2.55;;;;;;;28.74;33.89;99934.95;255629;1104;115662;-73
2021/06/27 11:41:38;;;;;;;5.98;3.05;;;;;;;28.69;33.60;99927.00;254089;1104;116017;-72
2021/06/27 11:46:45;;;;;;;3.15;2.95;;;;;;;28.59;33.63;99904.77;255479;1104;116215;-73
2021/06/27 11:51:51;;;;;;;2.43;2.30;;;;;;;28.57;33.89;99916.09;254438;1103;117277;-73
2021/06/27 11:57:02;;;;;;;2.58;2.43;;;;;;;28.62;33.76;99915.84;255652;1099;116645;-73
2021/06/27 12:02:14;;;;;;;2.53;2.33;;;;;;;28.43;34.04;99916.48;254355;1104;115980;-73
2021/06/27 12:07:28;;;;;;;3.48;3.28;;;;;;;28.47;34.22;99917.38;254538;1104;115817;-73
2021/06/27 12:12:46;;;;;;;3.55;2.63;;;;;;;28.65;34.59;99900.63;254521;1100;115766;-73
2021/06/27 12:18:04;;;;;;;2.58;2.38;;;;;;;28.77;33.76;99895.84;255001;1104;116371;-73
2021/06/27 12:23:13;;;;;;;3.53;2.80;;;;;;;28.77;34.29;99893.10;254485;1104;115586;-72
2021/06/27 12:28:28;;;;;;;2.50;2.30;;;;;;;28.72;34.59;99884.36;254464;1104;115778;-72
2021/06/27 12:33:38;;;;;;;2.55;2.33;;;;;;;28.17;34.01;99892.23;254788;1104;115591;-72
2021/06/27 12:38:47;;;;;;;2.80;2.60;;;;;;;27.98;33.69;99881.13;254263;1099;115468;-72
2021/06/27 12:44:26;;;;;;;2.38;2.13;;;;;;;27.90;34.53;99889.47;254462;1104;116196;-73
2021/06/27 12:49:33;;;;;;;2.90;2.70;;;;;;;27.64;34.56;99898.09;255285;1104;115199;-72
2021/06/27 12:54:44;;;;;;;3.60;2.70;;;;;;;27.99;34.47;99895.62;254545;1104;115519;-72
2021/06/27 12:59:55;;;;;;;3.10;1.93;;;;;;;28.31;34.34;99891.88;254964;1103;115934;-72
2021/06/27 13:05:02;;;;;;;2.63;2.43;;;;;;;28.49;34.20;99890.41;254386;1104;116939;-73
2021/06/27 13:10:19;;;;;;;2.25;2.08;;;;;;;28.63;33.78;99890.00;255378;1104;116438;-72
2021/06/27 13:15:27;;;;;;;3.08;2.80;;;;;;;28.62;33.39;99896.63;254966;1104;117072;-72
2021/06/27 13:20:37;;;;;;;2.80;2.60;;;;;;;28.42;33.45;99887.50;255814;1104;115488;-72
2021/06/27 13:25:58;;;;;;;2.57;2.47;;;;;;;27.75;34.11;99891.80;255975;1104;115053;-72
2021/06/27 13:31:05;;;;;;;3.87;2.33;;;;;;;27.83;34.70;99888.11;257364;1104;181263;-73
2021/06/27 13:36:30;;;;;;;2.55;2.35;;;;;;;27.39;34.37;99889.08;254601;1104;115905;-73
2021/06/27 13:41:33;;;;;;;1.80;1.70;;;;;;;27.00;34.84;99887.80;254420;1104;115762;-72
2021/06/27 13:46:38;;;;;;;3.58;2.73;;;;;;;26.63;35.37;99893.17;256093;1104;115306;-72
2021/06/27 13:51:42;;;;;;;7.15;2.45;;;;;;;26.72;35.54;99887.62;255375;1104;115163;-73
2021/06/27 13:56:47;;;;;;;3.35;3.05;;;;;;;27.05;35.90;99879.38;254375;1104;117063;-72
2021/06/27 14:01:50;;;;;;;3.18;2.15;;;;;;;27.27;35.30;99872.64;256045;1104;115316;-72
2021/06/27 14:06:53;;;;;;;2.93;2.20;;;;;;;27.42;34.93;99871.97;254412;1104;115642;-72
2021/06/27 14:11:59;;;;;;;1.93;1.83;;;;;;;27.36;35.00;99874.13;254568;1104;114424;-72
2021/06/27 14:17:03;;;;;;;1.97;1.87;;;;;;;27.32;35.04;99875.16;254460;1104;115626;-72
2021/06/27 14:22:06;;;;;;;1.55;1.45;;;;;;;27.02;35.07;99869.11;254485;1104;115528;-72
2021/06/27 14:27:10;;;;;;;2.30;2.20;;;;;;;26.96;35.46;99868.53;254750;1104;115414;-73
2021/06/27 14:32:13;;;;;;;2.43;2.28;;;;;;;27.19;35.58;99860.70;254318;1104;115646;-72
2021/06/27 14:37:18;;;;;;;9.63;2.23;;;;;;;27.29;35.10;99853.95;254550;1099;114404;-72
2021/06/27 14:42:21;;;;;;;3.10;2.10;;;;;;;27.32;35.74;99856.80;254945;1104;114971;-73
2021/06/27 14:47:24;;;;;;;3.08;2.68;;;;;;;27.23;35.11;99852.58;254607;1104;115442;-71
2021/06/27 14:52:28;;;;;;;4.45;2.30;;;;;;;27.20;34.78;99859.56;255465;1104;115030;-73
2021/06/27 14:57:32;;;;;;;2.27;2.17;;;;;;;26.99;35.22;99861.58;254946;1104;115264;-72
2021/06/27 15:02:35;;;;;;;2.40;2.20;;;;;;;26.98;35.96;99863.52;255032;1104;115680;-73
2021/06/27 15:07:39;;;;;;;2.33;2.13;;;;;;;26.97;36.04;99861.92;254534;1104;115845;-73
2021/06/27 15:12:42;;;;;;;2.28;2.18;;;;;;;26.69;36.36;99860.95;254359;1104;115275;-73
2021/06/27 15:17:45;;;;;;;2.13;2.03;;;;;;;26.50;36.15;99859.55;254415;1104;114841;-73
2021/06/27 15:22:49;;;;;;;2.17;2.07;;;;;;;26.42;36.55;99852.23;255624;1104;115310;-72
2021/06/27 15:27:52;;;;;;;2.08;1.98;;;;;;;26.26;35.95;99855.92;254586;1104;115518;-73
2021/06/27 15:32:55;;;;;;;2.48;2.28;;;;;;;26.11;36.18;99847.20;257379;1104;115039;-73
2021/06/27 15:37:59;;;;;;;3.90;2.00;;;;;;;26.11;37.05;99849.93;254721;1104;114611;-73
2021/06/27 15:43:01;;;;;;;5.05;2.58;;;;;;;26.09;36.83;99854.13;254271;1104;115253;-71
2021/06/27 15:48:08;;;;;;;2.20;2.10;;;;;;;25.99;36.72;99849.09;254287;1104;115838;-73
2021/06/27 15:53:14;;;;;;;2.05;1.75;;;;;;;25.83;36.78;99846.16;255390;1104;139420;-72
2021/06/27 15:58:17;;;;;;;2.20;2.03;;;;;;;25.64;37.64;99851.30;254535;1104;115874;-72
2021/06/27 16:03:20;;;;;;;7.90;1.90;;;;;;;25.55;37.40;99851.31;254965;1104;114588;-72
2021/06/27 16:08:22;;;;;;;1.68;1.60;;;;;;;25.28;37.62;99843.63;254637;1104;115916;-72
2021/06/27 16:13:25;;;;;;;2.88;1.83;;;;;;;25.05;37.24;99846.64;254276;1100;114898;-73
2021/06/27 16:18:28;;;;;;;2.00;1.90;;;;;;;24.94;37.38;99845.36;254471;1100;115890;-73
2021/06/27 16:23:32;;;;;;;1.87;1.77;;;;;;;24.84;38.25;99845.72;254506;1104;117248;-72
2021/06/27 16:28:37;;;;;;;1.95;1.73;;;;;;;24.76;37.87;99846.57;254417;1104;115509;-73
2021/06/27 16:33:41;;;;;;;4.15;1.85;;;;;;;24.70;37.68;99839.69;254358;1104;117236;-73
2021/06/27 16:38:45;;;;;;;1.53;1.50;;;;;;;24.61;38.16;99839.70;254234;1104;115836;-72
2021/06/27 16:43:48;;;;;;;1.30;1.20;;;;;;;24.50;38.71;99843.90;254862;1103;115848;-73
2021/06/27 16:48:54;;;;;;;2.53;2.33;;;;;;;24.34;38.46;99845.55;255193;1104;116719;-72
2021/06/27 16:53:58;;;;;;;1.53;1.43;;;;;;;24.20;39.10;99834.79;254371;1104;116492;-72
2021/06/27 16:59:03;;;;;;;1.75;1.65;;;;;;;24.11;39.10;99847.64;254400;1104;115840;-72
2021/06/27 17:04:07;;;;;;;2.28;2.18;;;;;;;24.00;39.12;99838.19;254324;1104;115679;-73
2021/06/27 17:09:10;;;;;;;3.38;1.90;;;;;;;23.89;39.56;99836.90;254280;1103;116245;-72
2021/06/27 17:14:13;;;;;;;2.33;2.13;;;;;;;23.78;39.99;99837.23;254291;1104;224526;-72
2021/06/27 17:19:16;;;;;;;1.70;1.60;;;;;;;23.66;39.65;99836.26;257211;1104;115274;-73
2021/06/27 17:24:19;;;;;;;1.70;1.60;;;;;;;23.56;39.85;99831.91;254937;1104;115122;-72
2021/06/27 17:29:23;;;;;;;1.85;1.75;;;;;;;23.43;39.88;99835.56;255273;1104;115027;-73
2021/06/27 17:34:25;;;;;;;1.47;1.37;;;;;;;23.36;40.40;99843.38;257270;1104;115049;-73
2021/06/27 17:39:30;;;;;;;2.10;1.83;;;;;;;23.29;40.56;99835.68;257302;1104;116408;-72
2021/06/27 17:44:32;;;;;;;2.33;1.80;;;;;;;23.20;40.70;99834.88;255511;1104;116827;-72
2021/06/27 17:49:37;;;;;;;1.73;1.53;;;;;;;23.14;41.52;99842.38;254496;1104;116450;-73
2021/06/27 17:54:39;;;;;;;2.20;2.00;;;;;;;22.98;42.81;99846.63;254862;1100;116866;-72
2021/06/27 17:59:42;;;;;;;2.15;1.98;;;;;;;22.81;43.91;99852.80;255053;1104;116411;-73
2021/06/27 18:04:45;;;;;;;1.47;1.43;;;;;;;22.61;44.78;99844.37;255949;1104;116949;-72
2021/06/27 18:09:47;;;;;;;1.87;1.77;;;;;;;22.45;45.13;99849.38;254463;1104;116037;-73
2021/06/27 18:14:50;;;;;;;1.93;1.67;;;;;;;22.25;45.66;99841.75;254201;1103;117387;-72
2021/06/27 18:19:53;;;;;;;1.73;1.63;;;;;;;22.04;46.10;99844.94;254441;1104;116691;-72
2021/06/27 18:24:57;;;;;;;3.63;2.03;;;;;;;21.78;46.15;99839.27;254712;1103;116441;-72
2021/06/27 18:30:01;;;;;;;2.25;2.15;;;;;;;21.59;46.44;99830.50;254392;1104;116770;-72
2021/06/27 18:35:04;;;;;;;2.53;1.78;;;;;;;21.36;46.63;99831.55;254811;1104;115432;-72
2021/06/27 18:40:08;;;;;;;3.93;2.03;;;;;;;21.15;47.88;99822.98;254419;1104;115239;-72
2021/06/27 18:45:11;;;;;;;3.25;1.93;;;;;;;20.93;48.71;99825.61;255112;1104;115271;-72
2021/06/27 18:50:16;;;;;;;2.08;1.95;;;;;;;20.68;49.53;99837.73;254608;1103;115564;-72
2021/06/27 18:55:19;;;;;;;1.93;1.83;;;;;;;20.43;50.57;99834.39;254326;1104;115135;-72
2021/06/27 19:00:23;;;;;;;3.85;2.13;;;;;;;20.14;51.53;99839.98;255062;1104;115384;-72
2021/06/27 19:05:27;;;;;;;1.93;1.83;;;;;;;19.90;52.46;99846.57;254973;1104;115417;-72
2021/06/27 19:10:32;;;;;;;1.60;1.50;;;;;;;19.61;53.02;99850.23;254326;1104;114955;-72
2021/06/27 19:15:39;;;;;;;2.60;2.40;;;;;;;19.25;53.58;99854.48;254446;1104;115814;-72
2021/06/27 19:20:43;;;;;;;2.00;1.90;;;;;;;18.90;54.32;99856.49;255281;1104;114951;-72
2021/06/27 19:25:48;;;;;;;2.70;2.50;;;;;;;18.58;54.93;99869.74;254446;1104;115534;-72
2021/06/27 19:30:52;;;;;;;2.50;2.30;;;;;;;18.39;55.85;99873.13;255110;1104;115552;-72
2021/06/27 19:35:55;;;;;;;2.17;2.07;;;;;;;18.28;56.38;99874.31;254370;1098;115006;-71
2021/06/27 19:40:59;;;;;;;2.43;2.23;;;;;;;18.11;56.66;99887.38;256221;1104;115663;-71
2021/06/27 19:46:03;;;;;;;2.58;2.38;;;;;;;17.95;57.36;99886.69;255576;1100;115385;-72
2021/06/27 19:51:08;;;;;;;2.63;2.43;;;;;;;17.77;57.29;99892.70;255307;1104;115311;-72
2021/06/27 19:56:12;;;;;;;2.95;2.75;;;;;;;17.60;58.17;99892.23;256217;1104;114922;-72
2021/06/27 20:01:16;;;;;;;4.15;2.93;;;;;;;17.39;57.80;99889.64;255427;1104;115521;-73
2021/06/27 20:06:20;;;;;;;7.30;2.80;;;;;;;17.21;58.08;99903.70;255155;1098;115327;-74
2021/06/27 20:11:24;;;;;;;2.58;2.30;;;;;;;16.97;58.65;99908.08;254804;1104;115532;-76
2021/06/27 20:16:29;;;;;;;3.35;3.05;;;;;;;16.74;59.21;99920.23;254149;1104;116707;-72
2021/06/27 20:21:35;;;;;;;5.38;2.85;;;;;;;16.56;59.34;99920.73;255634;1104;116045;-78
2021/06/27 20:26:40;;;;;;;5.35;2.08;;;;;;;16.41;59.66;99925.05;255984;1104;115261;-73
2021/06/27 20:31:44;;;;;;;4.23;2.28;;;;;;;16.30;60.07;99919.92;254652;1104;116127;-73
2021/06/27 20:36:48;;;;;;;2.70;2.60;;;;;;;16.11;60.06;99923.13;254357;1104;116568;-72
2021/06/27 20:41:52;;;;;;;2.90;2.60;;;;;;;15.96;60.81;99924.97;254503;1099;117267;-73
2021/06/27 20:46:56;;;;;;;3.15;2.85;;;;;;;15.78;61.04;99926.27;254497;1104;116277;-74
2021/06/27 20:52:00;;;;;;;4.08;3.78;;;;;;;15.68;61.67;99929.73;254282;1104;115843;-72
2021/06/27 20:57:04;;;;;;;9.48;2.85;;;;;;;15.58;62.04;99918.96;254420;1104;116933;-72
2021/06/27 21:02:08;;;;;;;3.68;2.53;;;;;;;15.42;62.34;99925.29;254392;1104;116888;-72
2021/06/27 21:07:12;;;;;;;8.95;2.53;;;;;;;15.20;62.46;99927.34;254590;1104;116935;-71
2021/06/27 21:12:16;;;;;;;5.17;3.43;;;;;;;15.04;62.68;99924.55;254468;1104;116107;-72
2021/06/27 21:17:20;;;;;;;3.75;3.45;;;;;;;15.01;63.29;99930.43;254289;1099;116807;-72
2021/06/27 21:22:24;;;;;;;3.80;3.55;;;;;;;14.88;63.49;99925.53;254771;1104;116129;-74
2021/06/27 21:27:28;;;;;;;3.80;3.50;;;;;;;14.75;64.15;99926.77;254672;1104;116500;-72
2021/06/27 21:32:31;;;;;;;10.05;4.55;;;;;;;14.66;64.46;99932.89;254373;1104;117261;-71
2021/06/27 21:37:35;;;;;;;8.00;5.25;;;;;;;14.68;65.46;99934.22;255318;1099;116733;-72
2021/06/27 21:42:41;;;;;;;5.03;4.28;;;;;;;14.65;64.69;99942.81;254326;1104;116190;-75
2021/06/27 21:47:45;;;;;;;5.73;4.25;;;;;;;14.62;64.98;99937.14;254292;1104;116639;-75
2021/06/27 21:52:51;;;;;;;7.55;5.58;;;;;;;14.60;64.98;99947.32;255620;1104;116037;-75
2021/06/27 21:57:54;;;;;;;;;;;;;;;14.54;65.21;99951.02;256849;1104;116113;-73
2021/06/27 22:02:59;;;;;;;6.18;4.95;;;;;;;14.38;65.38;99948.16;256253;1104;104325;-73
2021/06/27 22:08:03;;;;;;;9.95;6.53;;;;;;;14.28;65.95;99950.77;255584;1104;115419;-72
2021/06/27 22:13:06;;;;;;;6.70;4.25;;;;;;;14.29;66.18;99951.57;255889;1104;116003;-72
2021/06/27 22:18:09;;;;;;;7.18;4.63;;;;;;;14.24;66.10;99952.33;254374;1104;114801;-71
2021/06/27 22:23:13;;;;;;;10.03;6.65;;;;;;;14.17;66.56;99946.35;255035;1100;115989;-72
2021/06/27 22:28:17;;;;;;;22.60;14.97;;;;;;;14.10;66.86;99957.27;254390;1104;116209;-73
2021/06/27 22:33:20;;;;;;;13.53;9.48;;;;;;;14.07;67.24;99949.73;254220;1104;116292;-75
2021/06/27 22:38:23;;;;;;;10.60;9.53;;;;;;;14.06;66.73;99958.05;254403;1103;116808;-73
2021/06/27 22:43:28;;;;;;;12.28;7.95;;;;;;;13.98;66.29;99959.30;254252;1104;117871;-73
2021/06/27 22:48:31;;;;;;;12.53;6.70;;;;;;;13.93;66.93;99953.88;254572;1104;116555;-75
2021/06/27 22:53:34;;;;;;;18.38;7.35;;;;;;;13.81;67.75;99954.00;254854;1103;115485;-74
2021/06/27 22:58:38;;;;;;;6.73;5.10;;;;;;;13.72;67.70;99950.16;254754;1099;116055;-70
2021/06/27 23:03:41;;;;;;;11.83;5.95;;;;;;;13.71;67.44;99953.09;254353;1104;116511;-71
2021/06/27 23:08:45;;;;;;;8.03;5.80;;;;;;;13.64;67.76;99961.31;254329;1104;116403;-71
2021/06/27 23:13:49;;;;;;;7.78;5.90;;;;;;;13.53;67.79;99962.23;254206;1104;116713;-71